Time;durP1;ratioP1;P1;durP2;ratioP2;P2;SDS_P1;SDS_P2;PMS_P1;PMS_P2;Temp;Humidity;BMP_temperature;BMP_pressure;BME280_temperature;BME280_humidity;BME280_pressure;Samples;Min_cycle;Max_cycle;Signal;HPM_P1;HPM_P2
2022/07/07 00:00:30;;;;;;;14.50;7.68;;;16.60;99.90;;;;;;5076641;28;20060;-74
2022/07/07 00:02:56;;;;;;;11.93;7.55;;;16.60;99.90;;;;;;5044935;28;20388;-76
2022/07/07 00:05:22;;;;;;;16.88;7.10;;;16.60;99.90;;;;;;5073843;28;20428;-76
2022/07/07 00:07:48;;;;;;;14.27;6.90;;;16.60;99.90;;;;;;5026478;28;20047;-75
2022/07/07 00:10:13;;;;;;;16.02;6.78;;;16.60;99.90;;;;;;5073020;28;20500;-75
2022/07/07 00:12:40;;;;;;;12.40;6.47;;;16.60;99.90;;;;;;5016548;28;20400;-73
2022/07/07 00:15:09;;;;;;;12.60;6.07;;;16.60;99.90;;;;;;5024370;28;20047;-74
2022/07/07 00:17:34;;;;;;;10.45;6.07;;;16.50;99.90;;;;;;5070645;28;20052;-76
2022/07/07 00:20:00;;;;;;;10.75;5.50;;;16.50;99.90;;;;;;5038005;28;20036;-73
2022/07/07 00:22:26;;;;;;;13.90;5.57;;;16.60;99.90;;;;;;5074378;28;20539;-74
2022/07/07 00:24:51;;;;;;;11.70;5.63;;;16.50;99.90;;;;;;5079692;28;20095;-74
2022/07/07 00:27:17;;;;;;;10.90;5.65;;;16.50;99.90;;;;;;5081044;28;20055;-76
2022/07/07 00:29:43;;;;;;;13.88;5.15;;;16.50;99.90;;;;;;5076924;28;20067;-75
2022/07/07 00:32:10;;;;;;;15.75;5.13;;;16.50;99.90;;;;;;5075879;28;20167;-75
2022/07/07 00:34:36;;;;;;;11.32;5.22;;;16.50;99.90;;;;;;5042895;28;20044;-75
2022/07/07 00:37:02;;;;;;;11.82;5.07;;;16.50;99.90;;;;;;5043770;28;20109;-75
2022/07/07 00:39:28;;;;;;;14.02;5.43;;;16.40;99.90;;;;;;5040670;28;20098;-75
2022/07/07 00:41:54;;;;;;;12.02;5.70;;;16.50;99.90;;;;;;5071832;28;20040;-75
2022/07/07 00:44:22;;;;;;;10.80;5.28;;;16.50;99.90;;;;;;5054147;28;20044;-76
2022/07/07 00:46:50;;;;;;;15.05;5.55;;;16.50;99.90;;;;;;5036809;28;20044;-77
2022/07/07 00:49:18;;;;;;;10.68;4.63;;;16.40;99.90;;;;;;5042711;28;20425;-76
2022/07/07 00:51:44;;;;;;;9.25;4.88;;;16.40;99.90;;;;;;5043445;28;20159;-76
2022/07/07 00:54:10;;;;;;;14.57;5.25;;;16.40;99.90;;;;;;5062083;28;20040;-75
2022/07/07 00:56:37;;;;;;;12.27;4.55;;;16.30;99.90;;;;;;5042674;28;20132;-75
2022/07/07 00:59:07;;;;;;;11.52;4.10;;;16.40;99.90;;;;;;5050811;28;20044;-74
2022/07/07 01:01:38;;;;;;;8.15;3.60;;;16.30;99.90;;;;;;5074866;28;20375;-74
2022/07/07 01:04:09;;;;;;;7.90;3.30;;;16.30;99.90;;;;;;5020128;28;20072;-74
2022/07/07 01:06:35;;;;;;;7.65;3.30;;;16.30;99.90;;;;;;5041380;28;20064;-75
2022/07/07 01:09:02;;;;;;;8.95;3.10;;;16.20;99.90;;;;;;5042408;28;20036;-75
2022/07/07 01:11:50;;;;;;;6.97;3.03;;;16.10;99.90;;;;;;5027541;28;20036;-74
2022/07/07 01:14:16;;;;;;;11.82;3.20;;;16.20;99.90;;;;;;5073185;28;20434;-75
2022/07/07 01:16:42;;;;;;;8.38;2.90;;;16.30;99.90;;;;;;5021436;28;20051;-75
2022/07/07 01:19:07;;;;;;;9.85;3.00;;;16.10;99.90;;;;;;5031335;28;20111;-75
2022/07/07 01:21:49;;;;;;;7.85;3.20;;;16.10;99.90;;;;;;5035873;28;20458;-76
2022/07/07 01:24:15;;;;;;;10.52;3.28;;;16.00;99.90;;;;;;5072444;28;20036;-74
2022/07/07 01:26:40;;;;;;;15.00;3.55;;;16.00;99.90;;;;;;5043553;28;20102;-75
2022/07/07 01:29:06;;;;;;;10.95;3.20;;;16.10;99.90;;;;;;5044265;28;20139;-77
2022/07/07 01:31:32;;;;;;;8.73;2.90;;;16.00;99.90;;;;;;5043273;28;20043;-76
2022/07/07 01:33:57;;;;;;;10.05;3.67;;;16.00;99.90;;;;;;5057759;28;20395;-75
2022/07/07 01:36:23;;;;;;;12.57;3.70;;;16.10;99.90;;;;;;5041237;28;20044;-75
2022/07/07 01:38:49;;;;;;;8.55;3.63;;;16.10;99.90;;;;;;5074936;28;20040;-74
2022/07/07 01:41:14;;;;;;;12.13;3.85;;;16.10;99.90;;;;;;5073373;28;20045;-76
2022/07/07 01:43:40;;;;;;;10.88;3.72;;;16.00;99.90;;;;;;5034989;28;20059;-75
2022/07/07 01:46:06;;;;;;;14.60;4.10;;;16.00;99.90;;;;;;5074173;28;20074;-75
2022/07/07 01:48:34;;;;;;;14.35;4.05;;;16.00;99.90;;;;;;5054885;28;20175;-75
2022/07/07 01:51:00;;;;;;;14.75;4.13;;;16.10;99.90;;;;;;5040182;28;20044;-75
2022/07/07 01:53:26;;;;;;;17.63;4.30;;;16.00;99.90;;;;;;5040500;28;20388;-76
2022/07/07 01:55:52;;;;;;;10.23;3.65;;;16.10;99.90;;;;;;5040815;28;20037;-76
2022/07/07 01:58:18;;;;;;;9.75;3.97;;;16.00;99.90;;;;;;5074944;28;20081;-75
2022/07/07 02:00:43;;;;;;;17.02;3.90;;;16.10;99.90;;;;;;5040925;28;20049;-75
2022/07/07 02:03:09;;;;;;;20.90;4.47;;;16.10;99.90;;;;;;5073363;28;20051;-75
2022/07/07 02:05:34;;;;;;;12.80;3.45;;;16.10;99.90;;;;;;5021702;28;20433;-74
2022/07/07 02:08:00;;;;;;;15.45;4.40;;;16.10;99.90;;;;;;5072947;28;20531;-75
2022/07/07 02:13:11;;;;;;;11.18;3.95;;;16.00;99.90;;;;;;5060429;28;20068;-74
2022/07/07 02:15:36;;;;;;;19.15;3.97;;;16.00;99.90;;;;;;5040957;28;20124;-76
2022/07/07 02:18:02;;;;;;;17.83;3.72;;;16.10;99.90;;;;;;5079713;28;20049;-75
2022/07/07 02:20:28;;;;;;;14.68;3.47;;;16.10;99.90;;;;;;5027826;28;20387;-74
2022/07/07 02:22:54;;;;;;;20.73;4.10;;;16.10;99.90;;;;;;5049771;28;20036;-74
2022/07/07 02:25:20;;;;;;;15.35;3.78;;;16.10;99.90;;;;;;5050948;28;20401;-75
2022/07/07 02:27:45;;;;;;;20.77;3.97;;;16.20;99.90;;;;;;5051517;28;20106;-74
2022/07/07 02:30:11;;;;;;;15.75;3.30;;;16.20;99.90;;;;;;5079745;28;20855;-74
2022/07/07 02:32:37;;;;;;;17.88;3.47;;;16.10;99.90;;;;;;5029265;28;20172;-74
2022/07/07 02:35:03;;;;;;;12.60;3.00;;;16.10;99.90;;;;;;5039518;28;20467;-75
2022/07/07 02:37:28;;;;;;;12.32;3.08;;;16.00;99.90;;;;;;5044303;28;20051;-73
2022/07/07 02:39:54;;;;;;;19.75;2.90;;;16.00;99.90;;;;;;5073116;28;21591;-74
2022/07/07 02:42:20;;;;;;;15.00;2.92;;;16.00;99.90;;;;;;5046867;28;20040;-75
2022/07/07 02:44:45;;;;;;;9.32;2.67;;;16.10;99.90;;;;;;5051455;28;20448;-74
2022/07/07 02:47:11;;;;;;;18.35;2.92;;;16.10;99.90;;;;;;5073284;28;20071;-73
2022/07/07 02:49:37;;;;;;;14.82;3.00;;;16.00;99.90;;;;;;5032288;28;20052;-74
2022/07/07 02:52:04;;;;;;;13.95;2.83;;;16.10;99.90;;;;;;5048712;28;21746;-74
2022/07/07 02:54:30;;;;;;;17.23;3.10;;;16.10;99.90;;;;;;5077760;28;20765;-74
2022/07/07 02:56:55;;;;;;;17.25;2.70;;;16.00;99.90;;;;;;5040932;28;20040;-74
2022/07/07 02:59:21;;;;;;;16.42;3.10;;;16.00;99.90;;;;;;5077673;28;20033;-74
2022/07/07 03:01:47;;;;;;;15.07;3.15;;;16.10;99.90;;;;;;5045703;28;20071;-74
2022/07/07 03:04:13;;;;;;;13.40;2.70;;;16.00;99.90;;;;;;5043812;28;20395;-74
2022/07/07 03:06:38;;;;;;;14.10;2.50;;;16.10;99.90;;;;;;5043718;28;20043;-74
2022/07/07 03:09:04;;;;;;;17.20;3.08;;;15.90;99.90;;;;;;5023908;28;20040;-74
2022/07/07 03:11:30;;;;;;;17.83;3.00;;;15.90;99.90;;;;;;5043532;28;20037;-78
2022/07/07 03:13:55;;;;;;;19.55;3.17;;;16.00;99.90;;;;;;5070833;28;20076;-76
2022/07/07 03:16:21;;;;;;;15.65;3.08;;;15.90;99.90;;;;;;5058888;28;20041;-74
2022/07/07 03:18:46;;;;;;;18.33;3.03;;;16.00;99.90;;;;;;5030179;28;20048;-74
2022/07/07 03:21:12;;;;;;;17.63;3.08;;;15.90;99.90;;;;;;5023800;28;20040;-75
2022/07/07 03:23:38;;;;;;;15.02;3.00;;;16.00;99.90;;;;;;5045259;28;20115;-75
2022/07/07 03:26:05;;;;;;;17.58;3.30;;;16.00;99.90;;;;;;5076641;28;21167;-75
2022/07/07 03:28:31;;;;;;;19.40;2.40;;;16.00;99.90;;;;;;5046201;28;20092;-75
2022/07/07 03:30:58;;;;;;;11.05;2.33;;;16.00;99.90;;;;;;5025013;28;20083;-75
2022/07/07 03:33:24;;;;;;;13.27;2.17;;;15.90;99.90;;;;;;5030879;28;20480;-75
2022/07/07 03:35:49;;;;;;;19.17;2.00;;;15.90;99.90;;;;;;5045625;28;20518;-75
2022/07/07 03:38:15;;;;;;;10.82;1.73;;;15.90;99.90;;;;;;5054470;28;20071;-74
2022/07/07 03:40:41;;;;;;;19.10;2.00;;;15.70;99.90;;;;;;5050618;28;20041;-74
2022/07/07 03:43:06;;;;;;;21.75;1.98;;;15.80;99.90;;;;;;5060239;28;20106;-74
2022/07/07 03:45:32;;;;;;;16.73;2.13;;;15.80;99.90;;;;;;5055875;28;20144;-74
2022/07/07 03:47:57;;;;;;;13.52;1.90;;;15.80;99.90;;;;;;5057885;28;20096;-75
2022/07/07 03:50:23;;;;;;;12.27;1.65;;;15.70;99.90;;;;;;5069733;28;20028;-74
2022/07/07 03:52:49;;;;;;;16.63;1.67;;;15.70;99.90;;;;;;5053957;28;20450;-74
2022/07/07 03:55:15;;;;;;;12.57;1.63;;;15.70;99.90;;;;;;5058126;28;20039;-74
2022/07/07 03:57:41;;;;;;;4.15;0.95;;;15.80;99.90;;;;;;5044069;28;20051;-74
2022/07/07 04:00:07;;;;;;;12.60;1.90;;;15.80;99.90;;;;;;5074331;28;20048;-74
2022/07/07 04:02:33;;;;;;;13.18;1.75;;;15.70;99.90;;;;;;5056053;28;20489;-74
2022/07/07 04:04:58;;;;;;;8.18;1.52;;;15.70;99.90;;;;;;5047204;28;20123;-75
2022/07/07 04:07:24;;;;;;;10.40;1.80;;;15.70;99.90;;;;;;5026329;28;20383;-73
2022/07/07 04:09:49;;;;;;;10.65;1.92;;;15.60;99.90;;;;;;5049907;28;20075;-74
2022/07/07 04:12:15;;;;;;;13.23;2.00;;;15.60;99.90;;;;;;5051201;28;20028;-74
2022/07/07 04:14:41;;;;;;;17.42;2.10;;;15.70;99.90;;;;;;5048180;28;20044;-75
2022/07/07 04:17:06;;;;;;;9.38;2.05;;;15.60;99.90;;;;;;5047706;28;20139;-73
2022/07/07 04:19:32;;;;;;;18.05;1.70;;;15.70;99.90;;;;;;5046295;28;20526;-76
2022/07/07 04:21:58;;;;;;;11.85;1.90;;;15.60;99.90;;;;;;5075659;28;20090;-74
2022/07/07 04:24:24;;;;;;;15.32;1.95;;;15.60;99.90;;;;;;5043114;28;20602;-75
2022/07/07 04:26:49;;;;;;;12.63;2.08;;;15.50;99.90;;;;;;5055182;28;20048;-75
2022/07/07 04:29:15;;;;;;;12.60;2.20;;;15.50;99.90;;;;;;5080176;28;20059;-74
2022/07/07 04:31:44;;;;;;;13.32;2.20;;;15.60;99.90;;;;;;5058586;28;20190;-75
2022/07/07 04:34:11;;;;;;;17.23;2.78;;;15.60;99.90;;;;;;5072418;28;20053;-75
2022/07/07 04:36:37;;;;;;;19.65;2.45;;;15.50;99.90;;;;;;5057873;28;20055;-74
2022/07/07 04:39:03;;;;;;;12.30;2.03;;;15.40;99.90;;;;;;5017228;28;20392;-75
2022/07/07 04:41:28;;;;;;;12.00;2.10;;;15.50;99.90;;;;;;5039914;28;20064;-74
2022/07/07 04:43:54;;;;;;;11.57;1.75;;;15.50;99.90;;;;;;5041841;28;20075;-75
2022/07/07 04:46:19;;;;;;;10.27;1.88;;;15.50;99.90;;;;;;5040802;28;20044;-75
2022/07/07 04:48:45;;;;;;;14.73;1.70;;;15.60;99.90;;;;;;5042708;28;20082;-75
2022/07/07 04:51:11;;;;;;;11.20;1.42;;;15.60;99.90;;;;;;5052883;28;20069;-74
2022/07/07 04:53:36;;;;;;;9.45;1.75;;;15.50;99.90;;;;;;5048898;28;20117;-75
2022/07/07 04:56:03;;;;;;;12.30;1.70;;;15.50;99.90;;;;;;5070260;28;20037;-75
2022/07/07 04:58:29;;;;;;;22.98;2.35;;;15.60;99.90;;;;;;5023020;28;20628;-74
2022/07/07 05:00:54;;;;;;;7.18;1.50;;;15.70;99.90;;;;;;5038863;28;20040;-75
2022/07/07 05:03:20;;;;;;;10.55;1.67;;;15.60;99.90;;;;;;5053926;28;20124;-74
2022/07/07 05:05:46;;;;;;;12.25;2.00;;;15.50;99.90;;;;;;5075598;28;20068;-75
2022/07/07 05:08:11;;;;;;;11.75;1.80;;;15.60;99.90;;;;;;5037110;28;20037;-75
2022/07/07 05:10:37;;;;;;;9.75;1.65;;;15.60;99.90;;;;;;5054196;28;20049;-75
2022/07/07 05:13:02;;;;;;;6.00;1.77;;;15.50;99.90;;;;;;5043350;28;20033;-75
2022/07/07 05:15:28;;;;;;;6.63;1.75;;;15.60;99.90;;;;;;5077740;28;20048;-73
2022/07/07 05:17:54;;;;;;;13.75;2.28;;;15.50;99.90;;;;;;5062094;28;20040;-74
2022/07/07 05:20:19;;;;;;;13.05;2.28;;;15.40;99.90;;;;;;5077686;28;20091;-73
2022/07/07 05:22:45;;;;;;;16.27;2.38;;;15.40;99.90;;;;;;5042867;28;20075;-74
2022/07/07 05:25:11;;;;;;;15.68;2.80;;;15.40;99.90;;;;;;5042429;28;20040;-73
2022/07/07 05:27:36;;;;;;;12.02;2.25;;;15.30;99.90;;;;;;5073059;28;20048;-74
2022/07/07 05:30:03;;;;;;;15.02;2.75;;;15.30;99.90;;;;;;5070691;28;20686;-73
2022/07/07 05:32:29;;;;;;;14.80;2.22;;;15.40;99.90;;;;;;5039378;28;20121;-73
2022/07/07 05:34:54;;;;;;;15.27;2.78;;;15.40;99.90;;;;;;5077828;28;20106;-74
2022/07/07 05:37:20;;;;;;;16.10;2.45;;;15.40;99.90;;;;;;5082306;28;20041;-73
2022/07/07 05:39:46;;;;;;;13.40;2.60;;;15.50;99.90;;;;;;5065881;28;20128;-72
2022/07/07 05:42:12;;;;;;;15.57;2.55;;;15.50;99.90;;;;;;5042125;28;20543;-75
2022/07/07 05:44:38;;;;;;;15.20;2.00;;;15.50;99.90;;;;;;5039953;28;20036;-76
2022/07/07 05:47:03;;;;;;;15.18;2.70;;;15.50;99.90;;;;;;5069445;28;20044;-76
2022/07/07 05:49:29;;;;;;;12.75;2.50;;;15.60;99.90;;;;;;5058902;28;20063;-75
2022/07/07 05:51:55;;;;;;;15.63;2.20;;;15.60;99.90;;;;;;5046321;28;20392;-73
2022/07/07 05:54:20;;;;;;;11.63;2.13;;;15.80;99.90;;;;;;5079037;28;20176;-74
2022/07/07 05:56:46;;;;;;;12.27;2.30;;;15.70;99.90;;;;;;5062172;28;20085;-74
2022/07/07 05:59:12;;;;;;;14.85;2.42;;;15.80;99.90;;;;;;5046749;28;20067;-76
2022/07/07 06:01:37;;;;;;;11.85;1.67;;;15.90;99.90;;;;;;5075624;28;20074;-75
2022/07/07 06:04:03;;;;;;;13.52;2.63;;;15.90;99.90;;;;;;5046182;28;20039;-75
2022/07/07 06:06:29;;;;;;;11.38;2.00;;;15.80;99.90;;;;;;5048099;28;20123;-74
2022/07/07 06:08:55;;;;;;;10.93;1.77;;;15.80;99.90;;;;;;5048046;28;20093;-76
2022/07/07 06:11:20;;;;;;;11.15;1.80;;;15.90;99.90;;;;;;5081857;28;20184;-78
2022/07/07 06:13:46;;;;;;;8.82;1.67;;;16.00;99.90;;;;;;5077379;28;20036;-76
2022/07/07 06:16:11;;;;;;;17.63;2.67;;;16.30;99.90;;;;;;5073636;28;20102;-74
2022/07/07 06:18:37;;;;;;;12.15;2.08;;;16.40;99.90;;;;;;5075890;28;20052;-75
2022/07/07 06:21:03;;;;;;;10.95;1.83;;;16.60;99.90;;;;;;5044073;28;20578;-74
2022/07/07 06:23:28;;;;;;;7.40;1.80;;;16.80;99.90;;;;;;5061796;28;20051;-76
2022/07/07 06:25:54;;;;;;;12.68;1.98;;;17.00;99.90;;;;;;5047250;28;20052;-75
2022/07/07 06:28:20;;;;;;;19.13;1.70;;;17.10;99.90;;;;;;5060286;28;20161;-74
2022/07/07 06:30:45;;;;;;;6.88;1.60;;;17.10;99.90;;;;;;5080107;28;20052;-74
2022/07/07 06:33:11;;;;;;;11.50;1.40;;;17.00;99.90;;;;;;5058617;28;20040;-74
2022/07/07 06:35:37;;;;;;;5.55;1.30;;;16.90;99.90;;;;;;5046560;28;20052;-74
2022/07/07 06:38:03;;;;;;;5.93;1.38;;;16.90;99.90;;;;;;5046264;28;20044;-74
2022/07/07 06:40:28;;;;;;;7.53;1.30;;;16.80;99.90;;;;;;5074307;28;20185;-75
2022/07/07 06:42:54;;;;;;;8.32;1.20;;;16.70;99.90;;;;;;5047929;28;20479;-76
2022/07/07 06:45:20;;;;;;;7.85;1.20;;;16.90;99.90;;;;;;5046284;28;20049;-75
2022/07/07 06:47:45;;;;;;;4.22;1.35;;;17.00;99.90;;;;;;5080920;28;20078;-73
2022/07/07 06:50:11;;;;;;;6.00;1.42;;;16.90;99.90;;;;;;5058124;28;20064;-76
2022/07/07 06:52:37;;;;;;;3.70;1.13;;;16.70;99.90;;;;;;5044893;28;20036;-74
2022/07/07 06:55:04;;;;;;;6.20;1.00;;;16.40;99.90;;;;;;5062121;28;20325;-78
2022/07/07 06:57:30;;;;;;;5.35;0.80;;;16.20;99.90;;;;;;5064393;28;20036;-78
2022/07/07 06:59:56;;;;;;;5.15;0.88;;;16.10;99.90;;;;;;5065328;28;20048;-74
2022/07/07 07:02:21;;;;;;;5.65;0.80;;;16.10;99.90;;;;;;5074111;28;20052;-77
2022/07/07 07:04:50;;;;;;;6.38;0.80;;;16.20;99.90;;;;;;5089879;28;20058;-75
2022/07/07 07:07:16;;;;;;;7.28;1.38;;;16.40;99.90;;;;;;5030811;28;20053;-72
2022/07/07 07:09:42;;;;;;;4.05;0.73;;;16.50;99.90;;;;;;5034718;28;20122;-75
2022/07/07 07:12:08;;;;;;;4.15;0.75;;;16.40;99.90;;;;;;5046088;28;20128;-76
2022/07/07 07:14:33;;;;;;;6.55;0.93;;;16.50;99.90;;;;;;5061167;28;20110;-74
2022/07/07 07:16:59;;;;;;;5.60;0.95;;;16.60;99.90;;;;;;5046690;28;20511;-75
2022/07/07 07:19:25;;;;;;;4.82;1.10;;;16.70;99.90;;;;;;5033612;28;20488;-76
2022/07/07 07:21:50;;;;;;;6.90;1.60;;;16.90;99.90;;;;;;5080468;28;20488;-73
2022/07/07 07:24:16;;;;;;;6.05;1.13;;;16.90;99.90;;;;;;5060034;28;20421;-74
2022/07/07 07:26:42;;;;;;;8.30;1.25;;;17.20;99.90;;;;;;5058470;28;21654;-76
2022/07/07 07:29:08;;;;;;;6.50;0.85;;;17.40;99.90;;;;;;5059380;28;20041;-77
2022/07/07 07:31:33;;;;;;;6.53;1.15;;;17.30;99.90;;;;;;5043786;28;20056;-76
2022/07/07 07:33:59;;;;;;;3.05;0.70;;;17.50;99.90;;;;;;5072054;28;20048;-75
2022/07/07 07:36:24;;;;;;;12.02;1.40;;;17.70;99.90;;;;;;5040241;28;20036;-74
2022/07/07 07:38:50;;;;;;;14.02;1.25;;;17.70;99.90;;;;;;5028366;28;20045;-74
2022/07/07 07:41:18;;;;;;;6.75;1.13;;;17.40;99.90;;;;;;5024492;28;20142;-75
2022/07/07 07:43:44;;;;;;;6.05;1.02;;;17.10;99.90;;;;;;5065061;28;20045;-74
2022/07/07 07:46:09;;;;;;;4.63;1.15;;;17.00;99.90;;;;;;5081164;28;20123;-75
2022/07/07 07:48:35;;;;;;;5.25;0.98;;;16.90;99.90;;;;;;5062119;28;20047;-75
2022/07/07 07:51:02;;;;;;;6.38;1.20;;;17.00;99.90;;;;;;5050133;28;20236;-74
2022/07/07 07:53:28;;;;;;;3.47;0.70;;;17.10;99.90;;;;;;5036638;28;20056;-75
2022/07/07 07:55:54;;;;;;;8.45;1.58;;;17.20;99.90;;;;;;5082534;28;20166;-75
2022/07/07 07:58:19;;;;;;;7.65;1.30;;;17.30;99.90;;;;;;5077963;28;20125;-75
2022/07/07 08:00:45;;;;;;;7.07;1.20;;;17.20;99.90;;;;;;5054319;28;20407;-74
2022/07/07 08:03:11;;;;;;;10.18;1.30;;;17.20;99.90;;;;;;5050050;28;20162;-76
2022/07/07 08:05:36;;;;;;;7.65;1.20;;;17.40;99.90;;;;;;5081895;28;20538;-75
2022/07/07 08:08:02;;;;;;;8.25;1.48;;;17.40;99.90;;;;;;5087094;28;20048;-74
2022/07/07 08:10:28;;;;;;;10.98;1.45;;;17.40;99.90;;;;;;5072347;28;20067;-75
2022/07/07 08:12:53;;;;;;;4.20;1.10;;;17.60;99.90;;;;;;5083133;28;20125;-73
2022/07/07 08:15:19;;;;;;;8.55;1.58;;;17.70;99.90;;;;;;5085405;28;20471;-75
2022/07/07 08:17:45;;;;;;;4.03;0.95;;;17.30;99.90;;;;;;5049598;28;20051;-75
2022/07/07 08:20:11;;;;;;;6.65;1.17;;;17.20;99.90;;;;;;5031444;28;20135;-76
2022/07/07 08:22:38;;;;;;;7.40;1.50;;;17.10;99.90;;;;;;5036458;28;20048;-74
2022/07/07 08:25:04;;;;;;;8.60;1.55;;;17.10;99.90;;;;;;5063186;28;20476;-75
2022/07/07 08:27:30;;;;;;;9.52;1.67;;;17.20;99.90;;;;;;5048202;28;20074;-73
2022/07/07 08:29:55;;;;;;;5.63;1.48;;;17.40;99.90;;;;;;5050552;28;20157;-73
2022/07/07 08:32:21;;;;;;;7.22;1.75;;;17.50;99.90;;;;;;5045397;28;20479;-74
2022/07/07 08:34:47;;;;;;;10.80;1.52;;;17.60;99.90;;;;;;5041546;28;20047;-73
2022/07/07 08:37:14;;;;;;;10.00;1.50;;;17.60;99.90;;;;;;5026501;28;20094;-74
2022/07/07 08:39:39;;;;;;;8.77;1.92;;;17.50;99.90;;;;;;5076954;28;20515;-74
2022/07/07 08:42:06;;;;;;;11.98;1.85;;;17.60;99.90;;;;;;5043305;28;20044;-74
2022/07/07 08:44:32;;;;;;;9.95;1.77;;;17.60;99.90;;;;;;5043848;28;20044;-74
2022/07/07 08:46:58;;;;;;;9.23;1.90;;;17.60;99.90;;;;;;5041443;28;20122;-73
2022/07/07 08:49:25;;;;;;;12.13;2.10;;;17.50;99.90;;;;;;5040503;28;20072;-75
2022/07/07 08:51:52;;;;;;;13.13;2.53;;;17.40;99.90;;;;;;5023299;28;20055;-75
2022/07/07 08:54:18;;;;;;;7.07;1.58;;;17.30;99.90;;;;;;5081105;28;20040;-74
2022/07/07 08:56:44;;;;;;;9.93;2.15;;;17.30;99.90;;;;;;5079147;28;20437;-74
2022/07/07 08:59:13;;;;;;;8.73;1.83;;;17.30;99.90;;;;;;5080074;28;20400;-74
2022/07/07 09:01:39;;;;;;;6.72;1.70;;;17.50;99.90;;;;;;5044617;28;20431;-75
2022/07/07 09:04:05;;;;;;;7.97;1.70;;;17.40;99.90;;;;;;5029270;28;20460;-75
2022/07/07 09:06:32;;;;;;;4.80;1.10;;;17.20;99.90;;;;;;5029815;28;20049;-75
2022/07/07 09:08:58;;;;;;;4.43;1.13;;;17.10;99.90;;;;;;5042292;28;20065;-77
2022/07/07 09:11:33;;;;;;;7.25;1.40;;;17.20;99.90;;;;;;5078493;28;20071;-76
2022/07/07 09:14:11;;;;;;;;;;;17.50;99.90;;;;;;5043673;28;20103;-76
2022/07/07 09:16:38;;;;;;;10.43;1.58;;;17.70;99.90;;;;;;5034291;28;19920;-75
2022/07/07 09:19:16;;;;;;;3.72;0.82;;;18.00;99.90;;;;;;5044696;28;20094;-76
2022/07/07 09:21:42;;;;;;;8.70;1.20;;;18.00;99.90;;;;;;5080929;28;20052;-75
2022/07/07 09:24:08;;;;;;;7.13;1.30;;;18.00;99.90;;;;;;5033228;28;20129;-76
2022/07/07 09:26:38;;;;;;;5.90;1.63;;;18.40;99.90;;;;;;5080478;28;20056;-75
2022/07/07 09:29:19;;;;;;;5.15;1.05;;;18.50;99.90;;;;;;5028862;28;20044;-75
2022/07/07 09:31:58;;;;;;;12.70;1.42;;;18.40;99.90;;;;;;5025162;28;20235;-75
2022/07/07 09:34:28;;;;;;;8.73;1.50;;;18.30;99.90;;;;;;5081083;28;20152;-74
2022/07/07 09:39:47;;;;;;;6.30;1.27;;;17.60;99.90;;;;;;5076763;28;20343;-74
2022/07/07 09:42:32;;;;;;;9.18;1.63;;;17.60;99.90;;;;;;5078322;28;20068;-73
2022/07/07 09:45:04;;;;;;;5.10;1.00;;;17.80;99.90;;;;;;5044610;28;20977;-75
2022/07/07 09:47:32;;;;;;;7.40;1.20;;;17.70;99.90;;;;;;5045350;28;20099;-75
2022/07/07 09:50:06;;;;;;;3.75;0.60;;;17.50;99.90;;;;;;5052496;28;20070;-74
2022/07/07 09:52:33;;;;;;;5.22;0.95;;;16.90;99.90;;;;;;5050316;28;20451;-75
2022/07/07 09:55:00;;;;;;;3.60;1.27;;;16.80;99.90;;;;;;5032578;28;20571;-73
2022/07/07 09:57:26;;;;;;;5.97;0.80;;;16.90;99.90;;;;;;5021056;28;20048;-75
2022/07/07 09:59:53;;;;;;;9.80;2.05;;;17.00;99.90;;;;;;5046991;28;20087;-78
2022/07/07 10:02:25;;;;;;;7.32;1.13;;;17.20;99.90;;;;;;5039654;28;20055;-77
2022/07/07 10:04:54;;;;;;;6.22;1.33;;;17.60;99.90;;;;;;5057153;28;20552;-76
2022/07/07 10:07:22;;;;;;;6.00;1.23;;;17.50;99.90;;;;;;5043272;28;20079;-75
2022/07/07 10:10:08;;;;;;;9.30;1.73;;;17.60;99.90;;;;;;5029322;28;20033;-74
2022/07/07 10:12:41;;;;;;;2.83;0.80;;;17.60;99.90;;;;;;5021504;28;20924;-74
2022/07/07 10:15:13;;;;;;;5.85;1.23;;;17.90;99.90;;;;;;5043506;28;20044;-75
2022/07/07 10:17:43;;;;;;;7.97;1.60;;;17.70;99.90;;;;;;5031979;28;20049;-76
2022/07/07 10:20:11;;;;;;;10.65;1.60;;;17.60;99.90;;;;;;5044921;28;20053;-75
2022/07/07 10:22:37;;;;;;;6.70;1.65;;;17.40;99.90;;;;;;5062346;28;20391;-75
2022/07/07 10:25:07;;;;;;;10.77;1.50;;;17.40;99.90;;;;;;5028736;28;20056;-77
2022/07/07 10:27:33;;;;;;;6.82;1.40;;;17.20;99.90;;;;;;5057191;28;20044;-75
2022/07/07 10:30:01;;;;;;;11.05;1.98;;;17.10;99.90;;;;;;5047363;28;20048;-75
2022/07/07 10:32:38;;;;;;;15.63;1.73;;;17.00;99.90;;;;;;5060842;28;20036;-76
2022/07/07 10:35:07;;;;;;;7.75;1.67;;;17.00;99.90;;;;;;5059967;28;20036;-76
2022/07/07 10:37:42;;;;;;;15.93;2.17;;;17.10;99.90;;;;;;5029967;28;20105;-78
2022/07/07 10:40:31;;;;;;;8.07;1.25;;;17.00;99.90;;;;;;5074697;28;20075;-76
2022/07/07 10:43:27;;;;;;;11.25;2.13;;;17.20;99.90;;;;;;5025908;28;20255;-76
2022/07/07 10:45:54;;;;;;;16.98;2.30;;;17.20;99.90;;;;;;5062230;28;20836;-76
2022/07/07 10:48:43;;;;;;;14.82;3.00;;;17.20;99.90;;;;;;5074555;28;21111;-75
2022/07/07 10:51:22;;;;;;;16.70;2.58;;;17.40;99.90;;;;;;5072008;28;20055;-76
2022/07/07 10:53:57;;;;;;;21.00;3.40;;;17.50;99.90;;;;;;5041511;28;20108;-77
2022/07/07 10:56:23;;;;;;;19.17;3.42;;;17.50;99.90;;;;;;5079369;28;20040;-74
2022/07/07 10:58:59;;;;;;;17.85;2.60;;;17.70;99.90;;;;;;5054409;28;20048;-74
2022/07/07 11:01:29;;;;;;;15.40;2.90;;;17.70;99.90;;;;;;5067195;28;20619;-76
2022/07/07 11:03:56;;;;;;;16.35;2.35;;;17.70;99.90;;;;;;5055663;28;20049;-74
2022/07/07 11:06:22;;;;;;;18.15;3.00;;;17.50;99.90;;;;;;5056626;28;20033;-76
2022/07/07 11:08:56;;;;;;;14.45;2.78;;;17.50;99.90;;;;;;5034752;28;20360;-73
2022/07/07 11:11:22;;;;;;;13.02;2.70;;;17.20;99.90;;;;;;5078388;28;20067;-75
2022/07/07 11:17:33;;;;;;;18.15;2.67;;;17.10;99.90;;;;;;5068872;28;20044;-73
2022/07/07 11:19:59;;;;;;;18.38;2.65;;;17.00;99.90;;;;;;5045823;28;20056;-76
2022/07/07 11:22:25;;;;;;;18.15;2.53;;;17.20;99.90;;;;;;5081047;28;20056;-76
2022/07/07 11:24:51;;;;;;;11.80;2.35;;;17.40;99.90;;;;;;5048539;28;20137;-75
2022/07/07 11:27:27;;;;;;;9.88;1.90;;;17.70;99.90;;;;;;5069268;28;20093;-75
2022/07/07 11:29:57;;;;;;;9.88;1.88;;;17.60;99.90;;;;;;5063525;28;20049;-75
2022/07/07 11:32:22;;;;;;;9.68;1.60;;;17.80;99.90;;;;;;5046831;28;20478;-76
2022/07/07 11:34:48;;;;;;;10.45;2.00;;;17.70;99.90;;;;;;5041014;28;20115;-76
2022/07/07 11:37:25;;;;;;;14.80;1.90;;;17.90;99.90;;;;;;5032802;28;20163;-77
2022/07/07 11:39:52;;;;;;;12.00;2.05;;;17.90;99.90;;;;;;5044306;28;20059;-77
2022/07/07 11:42:18;;;;;;;12.75;2.10;;;18.10;99.90;;;;;;5046978;28;20071;-77
2022/07/07 11:44:43;;;;;;;15.88;1.98;;;18.10;99.90;;;;;;5025384;28;20087;-76
2022/07/07 11:47:09;;;;;;;13.73;2.20;;;18.00;99.90;;;;;;5045724;28;20083;-76
2022/07/07 11:49:35;;;;;;;12.20;2.20;;;18.20;99.90;;;;;;5029389;28;20056;-77
2022/07/07 11:52:00;;;;;;;11.57;1.63;;;18.20;99.90;;;;;;5058719;28;20048;-77
2022/07/07 11:54:26;;;;;;;8.95;1.90;;;18.50;99.90;;;;;;5022709;28;20130;-77
2022/07/07 11:56:52;;;;;;;11.35;2.10;;;18.60;99.90;;;;;;5058742;28;20058;-77
2022/07/07 11:59:22;;;;;;;11.35;2.28;;;18.50;99.90;;;;;;5033506;28;20067;-77
2022/07/07 12:01:50;;;;;;;16.42;2.72;;;18.90;99.90;;;;;;5022632;28;20044;-76
2022/07/07 12:04:18;;;;;;;16.98;2.70;;;18.80;99.90;;;;;;5078094;28;20041;-77
2022/07/07 12:06:44;;;;;;;11.48;2.33;;;18.50;99.90;;;;;;5026703;28;20053;-77
2022/07/07 12:09:10;;;;;;;19.27;3.22;;;18.60;99.90;;;;;;5060643;28;20041;-75
2022/07/07 12:11:38;;;;;;;15.15;2.88;;;18.80;99.90;;;;;;5060334;28;20081;-78
2022/07/07 12:14:08;;;;;;;18.42;2.95;;;18.50;99.90;;;;;;5046164;28;20046;-76
2022/07/07 12:16:49;;;;;;;13.07;2.10;;;18.50;99.90;;;;;;5048556;28;20065;-76
2022/07/07 12:19:15;;;;;;;15.65;2.95;;;18.40;99.90;;;;;;5066581;28;20059;-77
2022/07/07 12:21:46;;;;;;;12.60;2.47;;;18.50;99.90;;;;;;5053439;28;20087;-75
2022/07/07 12:24:14;;;;;;;19.60;2.72;;;18.30;99.90;;;;;;5053953;28;20048;-75
2022/07/07 12:26:51;;;;;;;12.25;2.20;;;18.50;99.90;;;;;;5036767;28;20055;-76
2022/07/07 12:29:21;;;;;;;11.82;2.20;;;18.50;99.90;;;;;;5037809;28;20051;-76
2022/07/07 12:31:49;;;;;;;11.23;2.13;;;18.50;99.90;;;;;;5053516;28;20060;-77
2022/07/07 12:34:19;;;;;;;6.63;1.55;;;18.90;99.90;;;;;;5087654;28;20066;-76
2022/07/07 12:36:47;;;;;;;9.15;1.75;;;18.90;99.90;;;;;;5049984;28;20114;-76
2022/07/07 12:39:13;;;;;;;11.98;2.30;;;18.80;99.90;;;;;;5087203;28;20134;-75
2022/07/07 12:41:39;;;;;;;11.93;2.10;;;18.60;99.90;;;;;;5049016;28;20093;-74
2022/07/07 12:44:19;;;;;;;10.07;2.00;;;18.50;99.90;;;;;;5065649;28;20048;-76
2022/07/07 12:46:45;;;;;;;14.00;2.38;;;18.40;99.90;;;;;;5075526;28;20040;-76
2022/07/07 12:49:12;;;;;;;10.68;2.28;;;18.30;99.90;;;;;;5043056;28;20040;-76